sensor_id;sensor_type;location;lat;lon;timestamp;P1;durP1;ratioP1;P2;durP2;ratioP2
27209;SDS011;14721;42.668;23.386;2022-09-09T00:04:37;9.75;;;5.43;;
27209;SDS011;14721;42.668;23.386;2022-09-09T00:07:07;7.40;;;4.78;;
27209;SDS011;14721;42.668;23.386;2022-09-09T00:15:52;7.03;;;4.70;;
27209;SDS011;14721;42.668;23.386;2022-09-09T00:21:11;8.07;;;5.40;;
27209;SDS011;14721;42.668;23.386;2022-09-09T00:23:45;7.53;;;5.13;;
27209;SDS011;14721;42.668;23.386;2022-09-09T00:26:21;11.50;;;5.47;;
27209;SDS011;14721;42.668;23.386;2022-09-09T00:29:00;9.45;;;5.55;;
27209;SDS011;14721;42.668;23.386;2022-09-09T00:31:27;6.88;;;5.18;;
27209;SDS011;14721;42.668;23.386;2022-09-09T00:33:55;8.50;;;4.90;;
27209;SDS011;14721;42.668;23.386;2022-09-09T00:36:27;8.63;;;4.80;;
27209;SDS011;14721;42.668;23.386;2022-09-09T00:38:56;7.85;;;4.72;;
27209;SDS011;14721;42.668;23.386;2022-09-09T00:44:34;8.05;;;4.93;;
27209;SDS011;14721;42.668;23.386;2022-09-09T00:58:26;7.13;;;4.65;;
27209;SDS011;14721;42.668;23.386;2022-09-09T01:03:34;8.80;;;5.65;;
27209;SDS011;14721;42.668;23.386;2022-09-09T01:06:34;8.20;;;4.90;;
27209;SDS011;14721;42.668;23.386;2022-09-09T01:12:01;6.95;;;5.50;;
27209;SDS011;14721;42.668;23.386;2022-09-09T01:20:04;9.45;;;5.80;;
27209;SDS011;14721;42.668;23.386;2022-09-09T01:27:48;10.10;;;5.03;;
27209;SDS011;14721;42.668;23.386;2022-09-09T01:30:17;8.70;;;5.35;;
27209;SDS011;14721;42.668;23.386;2022-09-09T01:35:31;8.32;;;5.30;;
27209;SDS011;14721;42.668;23.386;2022-09-09T01:38:21;14.10;;;5.78;;
27209;SDS011;14721;42.668;23.386;2022-09-09T01:43:19;6.35;;;5.13;;
27209;SDS011;14721;42.668;23.386;2022-09-09T01:45:45;9.35;;;5.63;;
27209;SDS011;14721;42.668;23.386;2022-09-09T01:48:12;9.90;;;5.50;;
27209;SDS011;14721;42.668;23.386;2022-09-09T01:50:38;8.38;;;5.07;;
27209;SDS011;14721;42.668;23.386;2022-09-09T01:53:04;9.45;;;6.30;;
27209;SDS011;14721;42.668;23.386;2022-09-09T01:55:31;8.18;;;5.82;;
27209;SDS011;14721;42.668;23.386;2022-09-09T01:58:17;9.60;;;5.63;;
27209;SDS011;14721;42.668;23.386;2022-09-09T02:03:56;10.50;;;5.30;;
27209;SDS011;14721;42.668;23.386;2022-09-09T02:06:36;7.32;;;5.13;;
27209;SDS011;14721;42.668;23.386;2022-09-09T02:09:07;9.82;;;4.80;;
27209;SDS011;14721;42.668;23.386;2022-09-09T02:11:38;9.15;;;5.68;;
27209;SDS011;14721;42.668;23.386;2022-09-09T02:14:10;12.35;;;5.95;;
27209;SDS011;14721;42.668;23.386;2022-09-09T02:16:42;7.28;;;4.85;;
27209;SDS011;14721;42.668;23.386;2022-09-09T02:19:12;9.70;;;5.53;;
27209;SDS011;14721;42.668;23.386;2022-09-09T02:21:52;8.43;;;5.57;;
27209;SDS011;14721;42.668;23.386;2022-09-09T02:24:20;6.38;;;4.35;;
27209;SDS011;14721;42.668;23.386;2022-09-09T02:26:48;13.65;;;5.38;;
27209;SDS011;14721;42.668;23.386;2022-09-09T02:29:19;9.05;;;4.95;;
27209;SDS011;14721;42.668;23.386;2022-09-09T02:31:49;7.97;;;5.47;;
27209;SDS011;14721;42.668;23.386;2022-09-09T02:34:16;10.20;;;5.50;;
27209;SDS011;14721;42.668;23.386;2022-09-09T02:36:45;9.50;;;5.65;;
27209;SDS011;14721;42.668;23.386;2022-09-09T02:39:16;7.78;;;5.53;;
27209;SDS011;14721;42.668;23.386;2022-09-09T02:41:42;7.82;;;5.57;;
27209;SDS011;14721;42.668;23.386;2022-09-09T02:44:13;8.80;;;6.07;;
27209;SDS011;14721;42.668;23.386;2022-09-09T02:58:08;7.90;;;5.13;;
27209;SDS011;14721;42.668;23.386;2022-09-09T03:00:37;11.55;;;5.97;;
27209;SDS011;14721;42.668;23.386;2022-09-09T03:03:05;11.02;;;6.10;;
27209;SDS011;14721;42.668;23.386;2022-09-09T03:05:45;9.30;;;5.25;;
27209;SDS011;14721;42.668;23.386;2022-09-09T03:08:11;9.20;;;5.95;;
27209;SDS011;14721;42.668;23.386;2022-09-09T03:10:38;8.15;;;5.72;;
27209;SDS011;14721;42.668;23.386;2022-09-09T03:13:04;8.65;;;5.53;;
27209;SDS011;14721;42.668;23.386;2022-09-09T03:15:33;9.38;;;5.82;;
27209;SDS011;14721;42.668;23.386;2022-09-09T03:17:59;9.68;;;6.00;;
27209;SDS011;14721;42.668;23.386;2022-09-09T03:20:26;11.68;;;5.57;;
27209;SDS011;14721;42.668;23.386;2022-09-09T03:22:54;10.30;;;6.78;;
27209;SDS011;14721;42.668;23.386;2022-09-09T03:25:21;10.93;;;6.28;;
27209;SDS011;14721;42.668;23.386;2022-09-09T03:27:51;11.48;;;6.63;;
27209;SDS011;14721;42.668;23.386;2022-09-09T03:30:22;9.07;;;6.20;;
27209;SDS011;14721;42.668;23.386;2022-09-09T03:32:49;12.25;;;6.90;;
27209;SDS011;14721;42.668;23.386;2022-09-09T03:35:15;14.73;;;8.07;;
27209;SDS011;14721;42.668;23.386;2022-09-09T03:37:41;14.75;;;7.80;;
27209;SDS011;14721;42.668;23.386;2022-09-09T03:40:07;16.88;;;8.50;;
27209;SDS011;14721;42.668;23.386;2022-09-09T03:42:35;17.25;;;9.43;;
27209;SDS011;14721;42.668;23.386;2022-09-09T03:45:02;11.23;;;6.50;;
27209;SDS011;14721;42.668;23.386;2022-09-09T03:47:35;12.52;;;7.82;;
27209;SDS011;14721;42.668;23.386;2022-09-09T03:50:02;12.93;;;8.85;;
27209;SDS011;14721;42.668;23.386;2022-09-09T03:52:29;13.57;;;8.02;;
27209;SDS011;14721;42.668;23.386;2022-09-09T03:54:56;9.13;;;6.80;;
27209;SDS011;14721;42.668;23.386;2022-09-09T03:57:28;10.25;;;6.28;;
27209;SDS011;14721;42.668;23.386;2022-09-09T03:59:56;11.90;;;6.97;;
27209;SDS011;14721;42.668;23.386;2022-09-09T04:02:23;11.55;;;7.10;;
27209;SDS011;14721;42.668;23.386;2022-09-09T04:04:49;11.30;;;7.68;;
27209;SDS011;14721;42.668;23.386;2022-09-09T04:07:15;11.15;;;7.13;;
27209;SDS011;14721;42.668;23.386;2022-09-09T04:09:41;14.43;;;8.35;;
27209;SDS011;14721;42.668;23.386;2022-09-09T04:12:07;13.55;;;7.07;;
27209;SDS011;14721;42.668;23.386;2022-09-09T04:14:33;11.95;;;6.78;;
27209;SDS011;14721;42.668;23.386;2022-09-09T04:16:58;10.63;;;6.90;;
27209;SDS011;14721;42.668;23.386;2022-09-09T04:19:25;13.15;;;6.35;;
27209;SDS011;14721;42.668;23.386;2022-09-09T04:21:51;14.13;;;8.13;;
27209;SDS011;14721;42.668;23.386;2022-09-09T04:24:17;13.10;;;6.50;;
27209;SDS011;14721;42.668;23.386;2022-09-09T04:26:44;11.98;;;7.28;;
27209;SDS011;14721;42.668;23.386;2022-09-09T04:29:12;11.10;;;7.85;;
27209;SDS011;14721;42.668;23.386;2022-09-09T04:31:38;12.50;;;7.13;;
27209;SDS011;14721;42.668;23.386;2022-09-09T04:34:11;12.68;;;7.95;;
27209;SDS011;14721;42.668;23.386;2022-09-09T04:36:38;9.73;;;6.88;;
27209;SDS011;14721;42.668;23.386;2022-09-09T04:39:05;14.02;;;7.57;;
27209;SDS011;14721;42.668;23.386;2022-09-09T04:41:31;11.55;;;8.48;;
27209;SDS011;14721;42.668;23.386;2022-09-09T04:43:57;11.73;;;6.97;;
27209;SDS011;14721;42.668;23.386;2022-09-09T04:46:24;19.85;;;8.15;;
27209;SDS011;14721;42.668;23.386;2022-09-09T04:48:51;12.65;;;7.72;;
27209;SDS011;14721;42.668;23.386;2022-09-09T04:51:17;10.98;;;7.30;;
27209;SDS011;14721;42.668;23.386;2022-09-09T04:53:44;12.60;;;6.80;;
27209;SDS011;14721;42.668;23.386;2022-09-09T04:56:14;10.50;;;6.65;;
27209;SDS011;14721;42.668;23.386;2022-09-09T04:58:43;16.17;;;6.60;;
27209;SDS011;14721;42.668;23.386;2022-09-09T05:01:18;12.13;;;7.10;;
27209;SDS011;14721;42.668;23.386;2022-09-09T05:03:46;10.57;;;6.65;;
27209;SDS011;14721;42.668;23.386;2022-09-09T05:06:23;9.82;;;6.25;;
27209;SDS011;14721;42.668;23.386;2022-09-09T05:08:49;10.32;;;6.07;;
27209;SDS011;14721;42.668;23.386;2022-09-09T05:11:20;10.65;;;7.25;;
27209;SDS011;14721;42.668;23.386;2022-09-09T05:13:52;10.15;;;6.25;;
27209;SDS011;14721;42.668;23.386;2022-09-09T05:16:20;10.23;;;5.78;;
27209;SDS011;14721;42.668;23.386;2022-09-09T05:18:47;8.38;;;6.00;;
27209;SDS011;14721;42.668;23.386;2022-09-09T05:21:14;9.48;;;6.90;;
27209;SDS011;14721;42.668;23.386;2022-09-09T05:23:41;11.23;;;5.93;;
27209;SDS011;14721;42.668;23.386;2022-09-09T05:26:11;12.13;;;5.05;;
27209;SDS011;14721;42.668;23.386;2022-09-09T05:28:40;9.77;;;5.97;;
27209;SDS011;14721;42.668;23.386;2022-09-09T05:31:07;8.07;;;5.30;;
27209;SDS011;14721;42.668;23.386;2022-09-09T05:33:36;5.35;;;4.53;;
27209;SDS011;14721;42.668;23.386;2022-09-09T05:36:06;9.15;;;5.35;;
27209;SDS011;14721;42.668;23.386;2022-09-09T05:38:33;7.55;;;5.28;;
27209;SDS011;14721;42.668;23.386;2022-09-09T05:41:00;10.02;;;5.53;;
27209;SDS011;14721;42.668;23.386;2022-09-09T05:43:27;7.03;;;5.13;;
27209;SDS011;14721;42.668;23.386;2022-09-09T05:46:03;7.80;;;4.53;;
27209;SDS011;14721;42.668;23.386;2022-09-09T05:48:35;10.10;;;6.18;;
27209;SDS011;14721;42.668;23.386;2022-09-09T05:51:03;10.65;;;6.75;;
27209;SDS011;14721;42.668;23.386;2022-09-09T05:53:30;12.77;;;7.18;;
27209;SDS011;14721;42.668;23.386;2022-09-09T05:56:06;10.32;;;6.60;;
27209;SDS011;14721;42.668;23.386;2022-09-09T05:58:35;8.55;;;5.70;;
27209;SDS011;14721;42.668;23.386;2022-09-09T06:01:03;14.75;;;5.82;;
27209;SDS011;14721;42.668;23.386;2022-09-09T06:03:34;11.35;;;5.55;;
27209;SDS011;14721;42.668;23.386;2022-09-09T06:06:02;6.93;;;5.10;;
27209;SDS011;14721;42.668;23.386;2022-09-09T06:08:33;6.32;;;4.57;;
27209;SDS011;14721;42.668;23.386;2022-09-09T06:11:09;7.80;;;5.35;;
27209;SDS011;14721;42.668;23.386;2022-09-09T06:13:37;8.27;;;4.40;;
27209;SDS011;14721;42.668;23.386;2022-09-09T06:16:04;8.52;;;4.32;;
27209;SDS011;14721;42.668;23.386;2022-09-09T06:18:32;4.85;;;3.78;;
27209;SDS011;14721;42.668;23.386;2022-09-09T06:21:02;7.22;;;4.32;;
27209;SDS011;14721;42.668;23.386;2022-09-09T06:23:30;10.60;;;4.47;;
27209;SDS011;14721;42.668;23.386;2022-09-09T06:26:06;7.07;;;4.10;;
27209;SDS011;14721;42.668;23.386;2022-09-09T06:28:35;8.13;;;3.95;;
27209;SDS011;14721;42.668;23.386;2022-09-09T06:31:03;10.85;;;4.53;;
27209;SDS011;14721;42.668;23.386;2022-09-09T06:33:34;5.88;;;4.22;;
27209;SDS011;14721;42.668;23.386;2022-09-09T06:36:04;5.03;;;3.63;;
27209;SDS011;14721;42.668;23.386;2022-09-09T06:38:32;5.93;;;3.90;;
27209;SDS011;14721;42.668;23.386;2022-09-09T06:40:58;5.05;;;3.75;;
27209;SDS011;14721;42.668;23.386;2022-09-09T06:43:25;5.82;;;4.00;;
27209;SDS011;14721;42.668;23.386;2022-09-09T06:48:21;8.30;;;4.00;;
27209;SDS011;14721;42.668;23.386;2022-09-09T06:50:48;5.25;;;3.83;;
27209;SDS011;14721;42.668;23.386;2022-09-09T06:53:18;6.68;;;4.65;;
27209;SDS011;14721;42.668;23.386;2022-09-09T06:55:49;6.10;;;3.95;;
27209;SDS011;14721;42.668;23.386;2022-09-09T06:58:17;5.75;;;4.13;;
27209;SDS011;14721;42.668;23.386;2022-09-09T07:00:44;9.38;;;3.65;;
27209;SDS011;14721;42.668;23.386;2022-09-09T07:03:10;6.95;;;3.97;;
27209;SDS011;14721;42.668;23.386;2022-09-09T07:05:38;5.10;;;3.92;;
27209;SDS011;14721;42.668;23.386;2022-09-09T07:08:03;6.13;;;3.95;;
27209;SDS011;14721;42.668;23.386;2022-09-09T07:10:30;7.47;;;3.92;;
27209;SDS011;14721;42.668;23.386;2022-09-09T07:12:56;5.72;;;3.80;;
27209;SDS011;14721;42.668;23.386;2022-09-09T07:17:51;6.95;;;3.20;;
27209;SDS011;14721;42.668;23.386;2022-09-09T07:20:18;8.43;;;4.13;;
27209;SDS011;14721;42.668;23.386;2022-09-09T07:22:45;6.53;;;3.50;;
27209;SDS011;14721;42.668;23.386;2022-09-09T07:25:11;6.80;;;3.67;;
27209;SDS011;14721;42.668;23.386;2022-09-09T07:27:37;8.48;;;4.07;;
27209;SDS011;14721;42.668;23.386;2022-09-09T07:30:02;5.30;;;3.17;;
27209;SDS011;14721;42.668;23.386;2022-09-09T07:32:29;9.23;;;3.55;;
27209;SDS011;14721;42.668;23.386;2022-09-09T07:34:55;4.18;;;3.47;;
27209;SDS011;14721;42.668;23.386;2022-09-09T07:37:23;4.30;;;3.50;;
27209;SDS011;14721;42.668;23.386;2022-09-09T07:39:49;5.30;;;3.65;;
27209;SDS011;14721;42.668;23.386;2022-09-09T07:42:16;6.90;;;4.13;;
27209;SDS011;14721;42.668;23.386;2022-09-09T07:44:42;5.63;;;3.67;;
27209;SDS011;14721;42.668;23.386;2022-09-09T07:47:08;6.07;;;3.63;;
27209;SDS011;14721;42.668;23.386;2022-09-09T07:49:34;5.68;;;3.63;;
27209;SDS011;14721;42.668;23.386;2022-09-09T07:52:01;5.60;;;4.25;;
27209;SDS011;14721;42.668;23.386;2022-09-09T07:54:28;7.75;;;4.32;;
27209;SDS011;14721;42.668;23.386;2022-09-09T07:56:55;6.50;;;4.00;;
27209;SDS011;14721;42.668;23.386;2022-09-09T07:59:21;7.75;;;3.28;;
27209;SDS011;14721;42.668;23.386;2022-09-09T08:01:47;5.68;;;4.13;;
27209;SDS011;14721;42.668;23.386;2022-09-09T08:04:16;6.90;;;4.05;;
27209;SDS011;14721;42.668;23.386;2022-09-09T08:06:47;6.75;;;3.97;;
27209;SDS011;14721;42.668;23.386;2022-09-09T08:09:14;5.55;;;3.78;;
27209;SDS011;14721;42.668;23.386;2022-09-09T08:11:41;10.27;;;3.60;;
27209;SDS011;14721;42.668;23.386;2022-09-09T08:14:08;5.63;;;4.43;;
27209;SDS011;14721;42.668;23.386;2022-09-09T08:16:37;9.07;;;3.72;;
27209;SDS011;14721;42.668;23.386;2022-09-09T08:19:07;7.50;;;3.70;;
27209;SDS011;14721;42.668;23.386;2022-09-09T08:21:34;4.38;;;3.30;;
27209;SDS011;14721;42.668;23.386;2022-09-09T08:24:02;4.70;;;3.45;;
27209;SDS011;14721;42.668;23.386;2022-09-09T08:26:32;7.53;;;4.05;;
27209;SDS011;14721;42.668;23.386;2022-09-09T08:29:04;9.80;;;4.88;;
27209;SDS011;14721;42.668;23.386;2022-09-09T08:31:35;8.93;;;6.72;;
27209;SDS011;14721;42.668;23.386;2022-09-09T08:34:04;7.15;;;3.75;;
27209;SDS011;14721;42.668;23.386;2022-09-09T08:36:33;6.47;;;4.00;;
27209;SDS011;14721;42.668;23.386;2022-09-09T08:39:04;5.78;;;3.17;;
27209;SDS011;14721;42.668;23.386;2022-09-09T08:41:35;7.03;;;3.55;;
27209;SDS011;14721;42.668;23.386;2022-09-09T08:55:21;7.10;;;4.30;;
27209;SDS011;14721;42.668;23.386;2022-09-09T08:57:52;8.13;;;5.00;;
27209;SDS011;14721;42.668;23.386;2022-09-09T09:00:21;9.02;;;4.03;;
27209;SDS011;14721;42.668;23.386;2022-09-09T09:03:01;4.35;;;3.35;;
27209;SDS011;14721;42.668;23.386;2022-09-09T09:06:30;11.07;;;5.00;;
27209;SDS011;14721;42.668;23.386;2022-09-09T09:11:53;5.07;;;3.65;;
27209;SDS011;14721;42.668;23.386;2022-09-09T09:14:26;21.73;;;9.68;;
27209;SDS011;14721;42.668;23.386;2022-09-09T09:16:59;18.33;;;6.75;;
27209;SDS011;14721;42.668;23.386;2022-09-09T09:19:28;6.22;;;3.88;;
27209;SDS011;14721;42.668;23.386;2022-09-09T09:25:09;12.73;;;4.90;;
27209;SDS011;14721;42.668;23.386;2022-09-09T09:28:27;6.82;;;4.05;;
27209;SDS011;14721;42.668;23.386;2022-09-09T09:30:57;6.68;;;4.82;;
27209;SDS011;14721;42.668;23.386;2022-09-09T09:36:12;8.63;;;4.18;;
27209;SDS011;14721;42.668;23.386;2022-09-09T09:38:51;6.50;;;4.20;;
27209;SDS011;14721;42.668;23.386;2022-09-09T09:41:41;5.63;;;4.32;;
27209;SDS011;14721;42.668;23.386;2022-09-09T09:44:22;6.30;;;3.97;;
27209;SDS011;14721;42.668;23.386;2022-09-09T09:47:14;7.90;;;4.47;;
27209;SDS011;14721;42.668;23.386;2022-09-09T09:49:54;7.43;;;4.32;;
27209;SDS011;14721;42.668;23.386;2022-09-09T09:52:25;7.38;;;4.75;;
27209;SDS011;14721;42.668;23.386;2022-09-09T09:54:56;5.18;;;3.40;;
27209;SDS011;14721;42.668;23.386;2022-09-09T09:57:28;7.85;;;3.83;;
27209;SDS011;14721;42.668;23.386;2022-09-09T10:00:16;5.65;;;4.30;;
27209;SDS011;14721;42.668;23.386;2022-09-09T10:02:45;6.32;;;3.83;;
27209;SDS011;14721;42.668;23.386;2022-09-09T10:05:22;6.93;;;4.35;;
27209;SDS011;14721;42.668;23.386;2022-09-09T10:16:30;6.07;;;3.55;;
27209;SDS011;14721;42.668;23.386;2022-09-09T10:24:42;9.68;;;3.97;;
27209;SDS011;14721;42.668;23.386;2022-09-09T10:30:29;6.60;;;4.22;;
27209;SDS011;14721;42.668;23.386;2022-09-09T10:33:04;7.05;;;4.13;;
27209;SDS011;14721;42.668;23.386;2022-09-09T10:47:31;5.57;;;4.22;;
27209;SDS011;14721;42.668;23.386;2022-09-09T10:57:53;7.15;;;4.35;;
27209;SDS011;14721;42.668;23.386;2022-09-09T11:00:24;7.65;;;4.47;;
27209;SDS011;14721;42.668;23.386;2022-09-09T11:03:00;5.75;;;3.97;;
27209;SDS011;14721;42.668;23.386;2022-09-09T11:05:38;8.10;;;4.10;;
27209;SDS011;14721;42.668;23.386;2022-09-09T11:08:18;7.78;;;5.28;;
27209;SDS011;14721;42.668;23.386;2022-09-09T11:13:28;6.78;;;4.25;;
27209;SDS011;14721;42.668;23.386;2022-09-09T11:21:31;8.45;;;4.72;;
27209;SDS011;14721;42.668;23.386;2022-09-09T11:24:05;8.23;;;4.78;;
27209;SDS011;14721;42.668;23.386;2022-09-09T11:26:40;6.88;;;4.75;;
27209;SDS011;14721;42.668;23.386;2022-09-09T11:40:40;9.70;;;4.90;;
27209;SDS011;14721;42.668;23.386;2022-09-09T11:43:14;7.13;;;4.97;;
27209;SDS011;14721;42.668;23.386;2022-09-09T11:45:49;8.00;;;4.80;;
27209;SDS011;14721;42.668;23.386;2022-09-09T11:48:34;10.60;;;5.50;;
27209;SDS011;14721;42.668;23.386;2022-09-09T11:51:03;8.80;;;5.53;;
27209;SDS011;14721;42.668;23.386;2022-09-09T11:53:30;15.05;;;5.57;;
27209;SDS011;14721;42.668;23.386;2022-09-09T11:56:04;10.45;;;5.28;;
27209;SDS011;14721;42.668;23.386;2022-09-09T11:58:42;9.45;;;4.65;;
27209;SDS011;14721;42.668;23.386;2022-09-09T12:01:14;9.25;;;4.68;;
27209;SDS011;14721;42.668;23.386;2022-09-09T12:09:20;9.05;;;5.40;;
27209;SDS011;14721;42.668;23.386;2022-09-09T12:11:51;8.30;;;5.47;;
27209;SDS011;14721;42.668;23.386;2022-09-09T12:14:37;6.72;;;5.10;;
27209;SDS011;14721;42.668;23.386;2022-09-09T12:19:46;11.57;;;5.50;;
27209;SDS011;14721;42.668;23.386;2022-09-09T12:24:43;9.38;;;5.38;;
27209;SDS011;14721;42.668;23.386;2022-09-09T12:30:10;10.90;;;5.10;;
27209;SDS011;14721;42.668;23.386;2022-09-09T12:32:39;9.85;;;5.10;;
27209;SDS011;14721;42.668;23.386;2022-09-09T12:40:23;8.45;;;5.45;;
27209;SDS011;14721;42.668;23.386;2022-09-09T12:43:19;8.65;;;5.20;;
27209;SDS011;14721;42.668;23.386;2022-09-09T12:45:47;9.35;;;5.90;;
27209;SDS011;14721;42.668;23.386;2022-09-09T12:48:15;12.52;;;5.60;;
27209;SDS011;14721;42.668;23.386;2022-09-09T12:50:45;9.00;;;5.70;;
27209;SDS011;14721;42.668;23.386;2022-09-09T12:55:50;6.15;;;4.97;;
27209;SDS011;14721;42.668;23.386;2022-09-09T12:58:19;8.30;;;6.15;;
27209;SDS011;14721;42.668;23.386;2022-09-09T13:00:49;15.48;;;7.07;;
27209;SDS011;14721;42.668;23.386;2022-09-09T13:03:22;9.75;;;6.63;;
27209;SDS011;14721;42.668;23.386;2022-09-09T13:05:50;11.45;;;7.40;;
27209;SDS011;14721;42.668;23.386;2022-09-09T13:08:18;9.43;;;5.95;;
27209;SDS011;14721;42.668;23.386;2022-09-09T13:13:38;8.52;;;5.45;;
27209;SDS011;14721;42.668;23.386;2022-09-09T13:16:06;10.35;;;5.65;;
27209;SDS011;14721;42.668;23.386;2022-09-09T13:18:43;11.70;;;8.90;;
27209;SDS011;14721;42.668;23.386;2022-09-09T13:21:09;13.63;;;6.25;;
27209;SDS011;14721;42.668;23.386;2022-09-09T13:23:36;11.55;;;6.05;;
27209;SDS011;14721;42.668;23.386;2022-09-09T13:26:04;10.13;;;5.28;;
27209;SDS011;14721;42.668;23.386;2022-09-09T13:28:32;10.35;;;6.55;;
27209;SDS011;14721;42.668;23.386;2022-09-09T13:33:33;8.50;;;5.57;;
27209;SDS011;14721;42.668;23.386;2022-09-09T13:36:09;12.07;;;5.00;;
27209;SDS011;14721;42.668;23.386;2022-09-09T13:38:57;7.85;;;5.95;;
27209;SDS011;14721;42.668;23.386;2022-09-09T13:41:35;6.95;;;4.95;;
27209;SDS011;14721;42.668;23.386;2022-09-09T13:44:16;10.75;;;6.57;;
27209;SDS011;14721;42.668;23.386;2022-09-09T13:46:59;11.63;;;5.28;;
27209;SDS011;14721;42.668;23.386;2022-09-09T13:49:30;11.32;;;5.85;;
27209;SDS011;14721;42.668;23.386;2022-09-09T13:52:09;8.80;;;5.30;;
27209;SDS011;14721;42.668;23.386;2022-09-09T13:54:39;10.18;;;5.43;;
27209;SDS011;14721;42.668;23.386;2022-09-09T13:57:11;9.20;;;5.43;;
27209;SDS011;14721;42.668;23.386;2022-09-09T13:59:40;10.35;;;5.88;;
27209;SDS011;14721;42.668;23.386;2022-09-09T14:02:07;11.82;;;5.80;;
27209;SDS011;14721;42.668;23.386;2022-09-09T14:04:32;11.45;;;6.35;;
27209;SDS011;14721;42.668;23.386;2022-09-09T14:07:01;12.27;;;5.60;;
27209;SDS011;14721;42.668;23.386;2022-09-09T14:09:27;9.80;;;5.63;;
27209;SDS011;14721;42.668;23.386;2022-09-09T14:11:54;9.13;;;6.15;;
27209;SDS011;14721;42.668;23.386;2022-09-09T14:14:20;7.90;;;5.53;;
27209;SDS011;14721;42.668;23.386;2022-09-09T14:16:46;13.10;;;5.45;;
27209;SDS011;14721;42.668;23.386;2022-09-09T14:19:12;9.45;;;4.90;;
27209;SDS011;14721;42.668;23.386;2022-09-09T14:21:37;7.47;;;5.13;;
27209;SDS011;14721;42.668;23.386;2022-09-09T14:24:11;9.63;;;5.25;;
27209;SDS011;14721;42.668;23.386;2022-09-09T14:26:38;10.88;;;5.28;;
27209;SDS011;14721;42.668;23.386;2022-09-09T14:29:05;8.25;;;5.00;;
27209;SDS011;14721;42.668;23.386;2022-09-09T14:31:34;12.07;;;6.15;;
27209;SDS011;14721;42.668;23.386;2022-09-09T14:34:02;9.07;;;5.25;;
27209;SDS011;14721;42.668;23.386;2022-09-09T14:36:27;11.48;;;5.45;;
27209;SDS011;14721;42.668;23.386;2022-09-09T14:38:55;9.68;;;5.30;;
27209;SDS011;14721;42.668;23.386;2022-09-09T14:41:21;9.20;;;4.45;;
27209;SDS011;14721;42.668;23.386;2022-09-09T14:43:48;6.10;;;4.80;;
27209;SDS011;14721;42.668;23.386;2022-09-09T14:46:16;11.07;;;5.32;;
27209;SDS011;14721;42.668;23.386;2022-09-09T14:48:44;6.55;;;4.90;;
27209;SDS011;14721;42.668;23.386;2022-09-09T14:51:21;11.60;;;5.10;;
27209;SDS011;14721;42.668;23.386;2022-09-09T14:53:50;11.00;;;5.28;;
27209;SDS011;14721;42.668;23.386;2022-09-09T14:56:23;9.35;;;5.20;;
27209;SDS011;14721;42.668;23.386;2022-09-09T14:58:53;11.52;;;5.55;;
27209;SDS011;14721;42.668;23.386;2022-09-09T15:01:20;8.43;;;4.93;;
27209;SDS011;14721;42.668;23.386;2022-09-09T15:03:57;8.30;;;5.53;;
27209;SDS011;14721;42.668;23.386;2022-09-09T15:06:27;13.55;;;5.13;;
27209;SDS011;14721;42.668;23.386;2022-09-09T15:09:15;8.65;;;5.30;;
27209;SDS011;14721;42.668;23.386;2022-09-09T15:11:41;12.30;;;6.50;;
27209;SDS011;14721;42.668;23.386;2022-09-09T15:14:10;8.02;;;5.38;;
27209;SDS011;14721;42.668;23.386;2022-09-09T15:16:41;9.80;;;5.45;;
27209;SDS011;14721;42.668;23.386;2022-09-09T15:19:11;9.00;;;5.35;;
27209;SDS011;14721;42.668;23.386;2022-09-09T15:21:37;9.57;;;5.60;;
27209;SDS011;14721;42.668;23.386;2022-09-09T15:24:04;6.38;;;5.28;;
27209;SDS011;14721;42.668;23.386;2022-09-09T15:26:33;10.60;;;5.60;;
27209;SDS011;14721;42.668;23.386;2022-09-09T15:29:00;9.15;;;5.65;;
27209;SDS011;14721;42.668;23.386;2022-09-09T15:31:30;8.13;;;5.20;;
27209;SDS011;14721;42.668;23.386;2022-09-09T15:34:00;10.82;;;5.15;;
27209;SDS011;14721;42.668;23.386;2022-09-09T15:36:31;11.18;;;5.65;;
27209;SDS011;14721;42.668;23.386;2022-09-09T15:39:01;8.25;;;5.05;;
27209;SDS011;14721;42.668;23.386;2022-09-09T15:41:29;9.55;;;5.63;;
27209;SDS011;14721;42.668;23.386;2022-09-09T15:43:57;12.95;;;5.35;;
27209;SDS011;14721;42.668;23.386;2022-09-09T15:46:26;8.68;;;5.95;;
27209;SDS011;14721;42.668;23.386;2022-09-09T15:48:53;8.40;;;4.93;;
27209;SDS011;14721;42.668;23.386;2022-09-09T15:51:43;12.35;;;5.80;;
27209;SDS011;14721;42.668;23.386;2022-09-09T15:54:12;12.60;;;5.80;;
27209;SDS011;14721;42.668;23.386;2022-09-09T15:56:52;8.65;;;5.32;;
27209;SDS011;14721;42.668;23.386;2022-09-09T15:59:26;8.13;;;5.63;;
27209;SDS011;14721;42.668;23.386;2022-09-09T16:01:53;7.68;;;5.07;;
27209;SDS011;14721;42.668;23.386;2022-09-09T16:04:21;9.27;;;5.20;;
27209;SDS011;14721;42.668;23.386;2022-09-09T16:06:49;8.23;;;4.85;;
27209;SDS011;14721;42.668;23.386;2022-09-09T16:09:17;7.85;;;5.15;;
27209;SDS011;14721;42.668;23.386;2022-09-09T16:11:45;7.78;;;4.95;;
27209;SDS011;14721;42.668;23.386;2022-09-09T16:14:15;8.35;;;5.10;;
27209;SDS011;14721;42.668;23.386;2022-09-09T16:16:42;10.32;;;4.72;;
27209;SDS011;14721;42.668;23.386;2022-09-09T16:19:08;7.40;;;4.53;;
27209;SDS011;14721;42.668;23.386;2022-09-09T16:21:38;8.25;;;4.45;;
27209;SDS011;14721;42.668;23.386;2022-09-09T16:24:06;12.60;;;5.13;;
27209;SDS011;14721;42.668;23.386;2022-09-09T16:26:34;9.85;;;4.80;;
27209;SDS011;14721;42.668;23.386;2022-09-09T16:29:02;5.60;;;3.75;;
27209;SDS011;14721;42.668;23.386;2022-09-09T16:31:29;12.88;;;5.20;;
27209;SDS011;14721;42.668;23.386;2022-09-09T16:33:56;6.05;;;3.95;;
27209;SDS011;14721;42.668;23.386;2022-09-09T16:36:24;12.35;;;5.05;;
27209;SDS011;14721;42.668;23.386;2022-09-09T16:38:55;9.30;;;5.13;;
27209;SDS011;14721;42.668;23.386;2022-09-09T16:41:23;7.57;;;4.60;;
27209;SDS011;14721;42.668;23.386;2022-09-09T16:43:55;7.25;;;4.15;;
27209;SDS011;14721;42.668;23.386;2022-09-09T16:46:23;11.02;;;4.80;;
27209;SDS011;14721;42.668;23.386;2022-09-09T16:48:49;8.35;;;4.72;;
27209;SDS011;14721;42.668;23.386;2022-09-09T16:51:19;16.48;;;7.70;;
27209;SDS011;14721;42.668;23.386;2022-09-09T16:53:51;10.98;;;5.95;;
27209;SDS011;14721;42.668;23.386;2022-09-09T16:56:19;14.52;;;6.57;;
27209;SDS011;14721;42.668;23.386;2022-09-09T16:58:53;14.15;;;6.70;;
27209;SDS011;14721;42.668;23.386;2022-09-09T17:01:24;8.55;;;5.13;;
27209;SDS011;14721;42.668;23.386;2022-09-09T17:03:54;10.05;;;6.07;;
27209;SDS011;14721;42.668;23.386;2022-09-09T17:06:30;9.57;;;5.28;;
27209;SDS011;14721;42.668;23.386;2022-09-09T17:09:00;13.88;;;6.53;;
27209;SDS011;14721;42.668;23.386;2022-09-09T17:11:28;9.57;;;5.18;;
27209;SDS011;14721;42.668;23.386;2022-09-09T17:13:58;12.85;;;5.50;;
27209;SDS011;14721;42.668;23.386;2022-09-09T17:16:24;10.18;;;5.40;;
27209;SDS011;14721;42.668;23.386;2022-09-09T17:18:52;7.63;;;5.10;;
27209;SDS011;14721;42.668;23.386;2022-09-09T17:21:22;16.83;;;5.72;;
27209;SDS011;14721;42.668;23.386;2022-09-09T17:23:50;20.15;;;5.65;;
27209;SDS011;14721;42.668;23.386;2022-09-09T17:26:18;11.43;;;6.18;;
27209;SDS011;14721;42.668;23.386;2022-09-09T17:28:45;9.73;;;5.32;;
27209;SDS011;14721;42.668;23.386;2022-09-09T17:31:11;13.25;;;6.22;;
27209;SDS011;14721;42.668;23.386;2022-09-09T17:33:39;13.23;;;5.97;;
27209;SDS011;14721;42.668;23.386;2022-09-09T17:36:13;12.93;;;5.82;;
27209;SDS011;14721;42.668;23.386;2022-09-09T17:38:40;11.45;;;5.72;;
27209;SDS011;14721;42.668;23.386;2022-09-09T17:43:37;11.88;;;6.20;;